Terminal Aerodrome Forecast
Issued by NWS

Home | Current Version | Previous Version | Text Only | Print | Product List | Glossary On
Versions: 1 2 3 4 5 6 7 8 9 10 11 12 13 14 15 16 17 18 19
000
FTUS44 KBMX 241100
TAFMGM
TAF
KMGM 241133Z 2412/2512 20008KT P6SM SCT020
      TEMPO 2412/2414 BKN020
     FM241600 27009KT P6SM SCT040
     FM242300 31007KT P6SM SCT250=

USA.gov is the U.S. government's official web portal to all federal, state and local government web resources and services.